Terminal Aerodrome Forecast
Issued by NWS

Home | Current Version | Previous Version | Text Only | Print | Product List | Glossary On
Versions: 1 2 3 4 5 6 7 8 9 10 11 12 13 14 15
093
FTUS46 KMTR 282320
TAFOAK
TAF
KOAK 282320Z 2900/3006 28013KT P6SM FEW010
     FM290300 30005KT P6SM BKN010
     FM290600 29006KT P6SM OVC010
      TEMPO 2911/2915 OVC007
     FM292000 28012KT P6SM SCT010
     FM292300 28014KT P6SM SCT015=

USA.gov is the U.S. government's official web portal to all federal, state and local government web resources and services.